sensor_id;sensor_type;location;lat;lon;timestamp;temperature;humidity
3504;DHT22;1766;53.490;10.174;2022-10-17T00:01:53;19.10;51.10
3504;DHT22;1766;53.490;10.174;2022-10-17T00:03:55;19.20;51.10
3504;DHT22;1766;53.490;10.174;2022-10-17T00:05:57;19.20;51.20
3504;DHT22;1766;53.490;10.174;2022-10-17T00:07:59;19.10;51.10
3504;DHT22;1766;53.490;10.174;2022-10-17T00:10:01;19.20;51.20
3504;DHT22;1766;53.490;10.174;2022-10-17T00:12:03;19.20;51.30
3504;DHT22;1766;53.490;10.174;2022-10-17T00:14:06;19.20;51.30
3504;DHT22;1766;53.490;10.174;2022-10-17T00:16:08;19.20;51.20
3504;DHT22;1766;53.490;10.174;2022-10-17T00:18:10;19.20;51.20
3504;DHT22;1766;53.490;10.174;2022-10-17T00:20:12;19.10;51.20
3504;DHT22;1766;53.490;10.174;2022-10-17T00:22:15;19.30;51.50
3504;DHT22;1766;53.490;10.174;2022-10-17T00:24:16;19.20;51.30
3504;DHT22;1766;53.490;10.174;2022-10-17T00:26:18;19.30;51.40
3504;DHT22;1766;53.490;10.174;2022-10-17T00:28:20;19.30;51.40
3504;DHT22;1766;53.490;10.174;2022-10-17T00:30:23;19.30;51.40
3504;DHT22;1766;53.490;10.174;2022-10-17T00:32:25;19.30;51.50
3504;DHT22;1766;53.490;10.174;2022-10-17T00:34:28;19.30;51.40
3504;DHT22;1766;53.490;10.174;2022-10-17T00:36:30;19.40;51.70
3504;DHT22;1766;53.490;10.174;2022-10-17T00:38:32;19.40;51.60
3504;DHT22;1766;53.490;10.174;2022-10-17T00:40:34;19.40;51.70
3504;DHT22;1766;53.490;10.174;2022-10-17T00:42:36;19.40;51.60
3504;DHT22;1766;53.490;10.174;2022-10-17T00:44:56;19.40;51.50
3504;DHT22;1766;53.490;10.174;2022-10-17T00:47:05;19.40;51.80
3504;DHT22;1766;53.490;10.174;2022-10-17T00:49:10;19.50;51.60
3504;DHT22;1766;53.490;10.174;2022-10-17T00:51:12;19.50;51.50
3504;DHT22;1766;53.490;10.174;2022-10-17T00:53:15;19.50;51.50
3504;DHT22;1766;53.490;10.174;2022-10-17T00:55:20;19.50;51.50
3504;DHT22;1766;53.490;10.174;2022-10-17T00:57:26;19.50;51.70
3504;DHT22;1766;53.490;10.174;2022-10-17T00:59:32;19.50;51.60
3504;DHT22;1766;53.490;10.174;2022-10-17T01:01:35;19.50;51.70
3504;DHT22;1766;53.490;10.174;2022-10-17T01:03:38;19.60;51.60
3504;DHT22;1766;53.490;10.174;2022-10-17T01:05:40;19.60;51.60
3504;DHT22;1766;53.490;10.174;2022-10-17T01:07:43;19.60;51.70
3504;DHT22;1766;53.490;10.174;2022-10-17T01:09:47;19.50;51.60
3504;DHT22;1766;53.490;10.174;2022-10-17T01:11:56;19.50;51.70
3504;DHT22;1766;53.490;10.174;2022-10-17T01:14:07;19.50;51.70
3504;DHT22;1766;53.490;10.174;2022-10-17T01:16:17;19.50;51.80
3504;DHT22;1766;53.490;10.174;2022-10-17T01:18:28;19.50;51.80
3504;DHT22;1766;53.490;10.174;2022-10-17T01:20:59;19.50;51.80
3504;DHT22;1766;53.490;10.174;2022-10-17T01:23:22;19.60;51.90
3504;DHT22;1766;53.490;10.174;2022-10-17T01:25:36;19.60;51.70
3504;DHT22;1766;53.490;10.174;2022-10-17T01:27:56;19.70;51.80
3504;DHT22;1766;53.490;10.174;2022-10-17T01:30:16;19.70;51.80
3504;DHT22;1766;53.490;10.174;2022-10-17T01:32:39;19.60;51.90
3504;DHT22;1766;53.490;10.174;2022-10-17T01:34:53;19.70;51.80
3504;DHT22;1766;53.490;10.174;2022-10-17T01:37:01;19.70;51.90
3504;DHT22;1766;53.490;10.174;2022-10-17T01:39:13;19.60;51.90
3504;DHT22;1766;53.490;10.174;2022-10-17T01:41:26;19.60;52.00
3504;DHT22;1766;53.490;10.174;2022-10-17T01:43:38;19.70;52.10
3504;DHT22;1766;53.490;10.174;2022-10-17T01:45:44;19.60;52.10
3504;DHT22;1766;53.490;10.174;2022-10-17T01:47:51;19.70;52.20
3504;DHT22;1766;53.490;10.174;2022-10-17T01:49:58;19.70;52.20
3504;DHT22;1766;53.490;10.174;2022-10-17T01:52:07;19.70;52.10
3504;DHT22;1766;53.490;10.174;2022-10-17T01:54:13;19.70;52.20
3504;DHT22;1766;53.490;10.174;2022-10-17T01:56:18;19.80;52.30
3504;DHT22;1766;53.490;10.174;2022-10-17T01:58:25;19.60;52.10
3504;DHT22;1766;53.490;10.174;2022-10-17T02:00:30;19.60;52.20
3504;DHT22;1766;53.490;10.174;2022-10-17T02:02:37;19.70;52.10
3504;DHT22;1766;53.490;10.174;2022-10-17T02:04:41;19.70;52.10
3504;DHT22;1766;53.490;10.174;2022-10-17T02:06:43;19.70;52.00
3504;DHT22;1766;53.490;10.174;2022-10-17T02:08:46;19.70;52.00
3504;DHT22;1766;53.490;10.174;2022-10-17T02:10:54;19.70;52.20
3504;DHT22;1766;53.490;10.174;2022-10-17T02:13:03;19.70;52.20
3504;DHT22;1766;53.490;10.174;2022-10-17T02:15:27;19.70;52.20
3504;DHT22;1766;53.490;10.174;2022-10-17T02:17:44;19.70;52.30
3504;DHT22;1766;53.490;10.174;2022-10-17T02:19:56;19.80;52.20
3504;DHT22;1766;53.490;10.174;2022-10-17T02:22:14;19.70;52.10
3504;DHT22;1766;53.490;10.174;2022-10-17T02:24:26;19.70;52.20
3504;DHT22;1766;53.490;10.174;2022-10-17T02:26:36;19.70;52.40
3504;DHT22;1766;53.490;10.174;2022-10-17T02:28:46;19.60;52.40
3504;DHT22;1766;53.490;10.174;2022-10-17T02:30:56;19.70;52.50
3504;DHT22;1766;53.490;10.174;2022-10-17T02:33:05;19.60;52.50
3504;DHT22;1766;53.490;10.174;2022-10-17T02:35:13;19.70;52.70
3504;DHT22;1766;53.490;10.174;2022-10-17T02:37:18;19.70;52.70
3504;DHT22;1766;53.490;10.174;2022-10-17T02:39:24;19.70;52.70
3504;DHT22;1766;53.490;10.174;2022-10-17T02:41:29;19.70;52.70
3504;DHT22;1766;53.490;10.174;2022-10-17T02:43:33;19.80;52.80
3504;DHT22;1766;53.490;10.174;2022-10-17T02:45:36;19.80;52.80
3504;DHT22;1766;53.490;10.174;2022-10-17T02:47:47;19.80;52.80
3504;DHT22;1766;53.490;10.174;2022-10-17T02:49:53;19.80;52.80
3504;DHT22;1766;53.490;10.174;2022-10-17T02:52:02;19.70;52.70
3504;DHT22;1766;53.490;10.174;2022-10-17T02:54:12;19.90;52.70
3504;DHT22;1766;53.490;10.174;2022-10-17T02:56:19;19.90;52.70
3504;DHT22;1766;53.490;10.174;2022-10-17T02:58:25;19.90;52.70
3504;DHT22;1766;53.490;10.174;2022-10-17T03:00:30;20.00;52.80
3504;DHT22;1766;53.490;10.174;2022-10-17T03:02:38;19.90;52.80
3504;DHT22;1766;53.490;10.174;2022-10-17T03:04:42;19.90;52.80
3504;DHT22;1766;53.490;10.174;2022-10-17T03:06:46;20.00;52.90
3504;DHT22;1766;53.490;10.174;2022-10-17T03:08:49;20.00;52.90
3504;DHT22;1766;53.490;10.174;2022-10-17T03:10:51;19.90;52.60
3504;DHT22;1766;53.490;10.174;2022-10-17T03:12:53;20.00;52.70
3504;DHT22;1766;53.490;10.174;2022-10-17T03:14:55;20.00;52.60
3504;DHT22;1766;53.490;10.174;2022-10-17T03:16:57;20.00;52.60
3504;DHT22;1766;53.490;10.174;2022-10-17T03:18:58;20.00;52.60
3504;DHT22;1766;53.490;10.174;2022-10-17T03:21:00;20.00;52.50
3504;DHT22;1766;53.490;10.174;2022-10-17T03:23:02;20.00;52.50
3504;DHT22;1766;53.490;10.174;2022-10-17T03:25:05;20.10;52.50
3504;DHT22;1766;53.490;10.174;2022-10-17T03:27:07;20.10;52.50
3504;DHT22;1766;53.490;10.174;2022-10-17T03:29:09;20.10;52.40
3504;DHT22;1766;53.490;10.174;2022-10-17T03:31:13;20.10;52.10
3504;DHT22;1766;53.490;10.174;2022-10-17T03:33:16;20.00;52.20
3504;DHT22;1766;53.490;10.174;2022-10-17T03:35:18;20.10;52.00
3504;DHT22;1766;53.490;10.174;2022-10-17T03:37:20;20.10;51.80
3504;DHT22;1766;53.490;10.174;2022-10-17T03:39:22;20.00;51.60
3504;DHT22;1766;53.490;10.174;2022-10-17T03:41:25;20.00;51.60
3504;DHT22;1766;53.490;10.174;2022-10-17T03:43:27;20.00;51.50
3504;DHT22;1766;53.490;10.174;2022-10-17T03:45:29;20.00;51.50
3504;DHT22;1766;53.490;10.174;2022-10-17T03:47:31;20.00;51.40
3504;DHT22;1766;53.490;10.174;2022-10-17T03:49:32;20.00;51.40
3504;DHT22;1766;53.490;10.174;2022-10-17T03:51:34;19.90;51.20
3504;DHT22;1766;53.490;10.174;2022-10-17T03:53:36;19.90;51.30
3504;DHT22;1766;53.490;10.174;2022-10-17T03:55:38;19.90;51.30
3504;DHT22;1766;53.490;10.174;2022-10-17T03:57:41;19.90;51.30
3504;DHT22;1766;53.490;10.174;2022-10-17T03:59:43;19.80;51.20
3504;DHT22;1766;53.490;10.174;2022-10-17T04:01:45;19.80;51.30
3504;DHT22;1766;53.490;10.174;2022-10-17T04:03:48;19.70;51.30
3504;DHT22;1766;53.490;10.174;2022-10-17T04:05:50;19.80;51.40
3504;DHT22;1766;53.490;10.174;2022-10-17T04:07:51;19.80;51.30
3504;DHT22;1766;53.490;10.174;2022-10-17T04:09:53;19.80;51.20
3504;DHT22;1766;53.490;10.174;2022-10-17T04:11:55;19.80;51.30
3504;DHT22;1766;53.490;10.174;2022-10-17T04:13:58;19.70;51.20
3504;DHT22;1766;53.490;10.174;2022-10-17T04:16:02;19.60;51.20
3504;DHT22;1766;53.490;10.174;2022-10-17T04:18:19;19.70;51.40
3504;DHT22;1766;53.490;10.174;2022-10-17T04:20:21;19.70;51.20
3504;DHT22;1766;53.490;10.174;2022-10-17T04:22:23;19.70;51.20
3504;DHT22;1766;53.490;10.174;2022-10-17T04:24:24;19.70;51.30
3504;DHT22;1766;53.490;10.174;2022-10-17T04:26:27;19.70;51.30
3504;DHT22;1766;53.490;10.174;2022-10-17T04:28:29;19.70;51.20
3504;DHT22;1766;53.490;10.174;2022-10-17T04:30:32;19.80;51.40
3504;DHT22;1766;53.490;10.174;2022-10-17T04:32:36;19.60;51.10
3504;DHT22;1766;53.490;10.174;2022-10-17T04:34:38;19.60;51.10
3504;DHT22;1766;53.490;10.174;2022-10-17T04:36:40;19.60;51.00
3504;DHT22;1766;53.490;10.174;2022-10-17T04:38:42;19.50;51.00
3504;DHT22;1766;53.490;10.174;2022-10-17T04:40:44;19.50;51.00
3504;DHT22;1766;53.490;10.174;2022-10-17T04:42:46;19.60;51.10
3504;DHT22;1766;53.490;10.174;2022-10-17T04:44:48;19.50;50.90
3504;DHT22;1766;53.490;10.174;2022-10-17T04:46:51;19.40;51.00
3504;DHT22;1766;53.490;10.174;2022-10-17T04:48:53;19.40;50.90
3504;DHT22;1766;53.490;10.174;2022-10-17T04:50:57;19.40;51.00
3504;DHT22;1766;53.490;10.174;2022-10-17T04:53:00;19.30;51.10
3504;DHT22;1766;53.490;10.174;2022-10-17T04:55:02;19.30;50.90
3504;DHT22;1766;53.490;10.174;2022-10-17T04:57:05;19.20;50.90
3504;DHT22;1766;53.490;10.174;2022-10-17T04:59:06;19.30;50.90
3504;DHT22;1766;53.490;10.174;2022-10-17T05:01:10;19.20;50.80
3504;DHT22;1766;53.490;10.174;2022-10-17T05:03:14;19.10;50.80
3504;DHT22;1766;53.490;10.174;2022-10-17T05:05:16;19.20;51.00
3504;DHT22;1766;53.490;10.174;2022-10-17T05:07:18;19.20;50.90
3504;DHT22;1766;53.490;10.174;2022-10-17T05:09:20;19.20;50.80
3504;DHT22;1766;53.490;10.174;2022-10-17T05:11:25;19.10;50.90
3504;DHT22;1766;53.490;10.174;2022-10-17T05:13:27;19.10;51.10
3504;DHT22;1766;53.490;10.174;2022-10-17T05:15:29;19.10;51.00
3504;DHT22;1766;53.490;10.174;2022-10-17T05:17:31;19.00;51.00
3504;DHT22;1766;53.490;10.174;2022-10-17T05:19:34;19.00;51.10
3504;DHT22;1766;53.490;10.174;2022-10-17T05:21:36;19.00;51.10
3504;DHT22;1766;53.490;10.174;2022-10-17T05:23:38;19.00;51.10
3504;DHT22;1766;53.490;10.174;2022-10-17T05:25:39;19.00;51.10
3504;DHT22;1766;53.490;10.174;2022-10-17T05:27:41;19.00;51.00
3504;DHT22;1766;53.490;10.174;2022-10-17T05:29:43;19.00;51.00
3504;DHT22;1766;53.490;10.174;2022-10-17T05:31:45;19.00;51.00
3504;DHT22;1766;53.490;10.174;2022-10-17T05:33:47;18.90;50.90
3504;DHT22;1766;53.490;10.174;2022-10-17T05:35:50;18.90;51.00
3504;DHT22;1766;53.490;10.174;2022-10-17T05:37:52;18.90;51.00
3504;DHT22;1766;53.490;10.174;2022-10-17T05:39:53;18.90;51.10
3504;DHT22;1766;53.490;10.174;2022-10-17T05:41:55;18.90;51.10
3504;DHT22;1766;53.490;10.174;2022-10-17T05:43:57;18.90;51.10
3504;DHT22;1766;53.490;10.174;2022-10-17T05:46:02;19.00;51.20
3504;DHT22;1766;53.490;10.174;2022-10-17T05:48:05;18.80;51.20
3504;DHT22;1766;53.490;10.174;2022-10-17T05:50:08;18.80;51.20
3504;DHT22;1766;53.490;10.174;2022-10-17T05:52:12;18.80;51.20
3504;DHT22;1766;53.490;10.174;2022-10-17T05:54:13;18.80;51.30
3504;DHT22;1766;53.490;10.174;2022-10-17T05:56:15;18.80;51.30
3504;DHT22;1766;53.490;10.174;2022-10-17T05:58:18;18.80;51.40
3504;DHT22;1766;53.490;10.174;2022-10-17T06:00:20;18.70;51.40
3504;DHT22;1766;53.490;10.174;2022-10-17T06:02:22;18.80;51.60
3504;DHT22;1766;53.490;10.174;2022-10-17T06:04:24;18.80;51.60
3504;DHT22;1766;53.490;10.174;2022-10-17T06:06:27;18.80;51.70
3504;DHT22;1766;53.490;10.174;2022-10-17T06:08:30;18.80;51.70
3504;DHT22;1766;53.490;10.174;2022-10-17T06:10:32;18.80;51.90
3504;DHT22;1766;53.490;10.174;2022-10-17T06:12:34;18.80;51.80
3504;DHT22;1766;53.490;10.174;2022-10-17T06:14:36;18.90;51.90
3504;DHT22;1766;53.490;10.174;2022-10-17T06:16:37;18.90;51.90
3504;DHT22;1766;53.490;10.174;2022-10-17T06:18:39;18.90;52.00
3504;DHT22;1766;53.490;10.174;2022-10-17T06:20:41;18.90;51.90
3504;DHT22;1766;53.490;10.174;2022-10-17T06:22:43;18.90;52.50
3504;DHT22;1766;53.490;10.174;2022-10-17T06:24:46;19.00;52.20
3504;DHT22;1766;53.490;10.174;2022-10-17T06:26:47;18.90;52.20
3504;DHT22;1766;53.490;10.174;2022-10-17T06:28:50;19.10;52.40
3504;DHT22;1766;53.490;10.174;2022-10-17T06:30:54;19.10;52.50
3504;DHT22;1766;53.490;10.174;2022-10-17T06:32:56;19.00;52.90
3504;DHT22;1766;53.490;10.174;2022-10-17T06:34:58;19.10;52.40
3504;DHT22;1766;53.490;10.174;2022-10-17T06:37:00;19.20;52.50
3504;DHT22;1766;53.490;10.174;2022-10-17T06:39:02;19.20;52.50
3504;DHT22;1766;53.490;10.174;2022-10-17T06:41:07;19.30;52.80
3504;DHT22;1766;53.490;10.174;2022-10-17T06:43:10;19.20;52.80
3504;DHT22;1766;53.490;10.174;2022-10-17T06:45:12;19.30;52.70
3504;DHT22;1766;53.490;10.174;2022-10-17T06:47:14;19.30;52.90
3504;DHT22;1766;53.490;10.174;2022-10-17T06:49:16;19.40;52.90
3504;DHT22;1766;53.490;10.174;2022-10-17T06:51:18;19.40;53.00
3504;DHT22;1766;53.490;10.174;2022-10-17T06:53:20;19.40;53.00
3504;DHT22;1766;53.490;10.174;2022-10-17T06:55:22;19.50;53.20
3504;DHT22;1766;53.490;10.174;2022-10-17T06:57:26;19.50;53.20
3504;DHT22;1766;53.490;10.174;2022-10-17T06:59:29;19.50;53.40
3504;DHT22;1766;53.490;10.174;2022-10-17T07:01:31;19.70;53.30
3504;DHT22;1766;53.490;10.174;2022-10-17T07:03:33;19.70;53.30
3504;DHT22;1766;53.490;10.174;2022-10-17T07:05:35;19.80;53.60
3504;DHT22;1766;53.490;10.174;2022-10-17T07:07:37;19.70;53.50
3504;DHT22;1766;53.490;10.174;2022-10-17T07:09:39;19.80;53.60
3504;DHT22;1766;53.490;10.174;2022-10-17T07:11:41;19.90;53.60
3504;DHT22;1766;53.490;10.174;2022-10-17T07:13:44;19.90;53.60
3504;DHT22;1766;53.490;10.174;2022-10-17T07:15:46;20.00;53.70
3504;DHT22;1766;53.490;10.174;2022-10-17T07:17:48;19.90;53.70
3504;DHT22;1766;53.490;10.174;2022-10-17T07:19:50;20.10;53.80
3504;DHT22;1766;53.490;10.174;2022-10-17T07:21:52;20.10;53.70
3504;DHT22;1766;53.490;10.174;2022-10-17T07:23:54;20.20;53.70
3504;DHT22;1766;53.490;10.174;2022-10-17T07:25:59;20.40;53.80
3504;DHT22;1766;53.490;10.174;2022-10-17T07:28:01;20.30;53.90
3504;DHT22;1766;53.490;10.174;2022-10-17T07:30:06;20.30;53.80
3504;DHT22;1766;53.490;10.174;2022-10-17T07:32:09;20.50;54.00
3504;DHT22;1766;53.490;10.174;2022-10-17T07:34:10;20.60;54.00
3504;DHT22;1766;53.490;10.174;2022-10-17T07:36:12;20.60;53.80
3504;DHT22;1766;53.490;10.174;2022-10-17T07:38:14;20.70;54.00
3504;DHT22;1766;53.490;10.174;2022-10-17T07:40:16;20.60;53.70
3504;DHT22;1766;53.490;10.174;2022-10-17T07:42:18;20.80;53.90
3504;DHT22;1766;53.490;10.174;2022-10-17T07:44:20;20.80;53.80
3504;DHT22;1766;53.490;10.174;2022-10-17T07:46:23;20.90;53.90
3504;DHT22;1766;53.490;10.174;2022-10-17T07:48:25;20.90;53.80
3504;DHT22;1766;53.490;10.174;2022-10-17T07:50:26;20.90;53.70
3504;DHT22;1766;53.490;10.174;2022-10-17T07:52:28;21.00;54.00
3504;DHT22;1766;53.490;10.174;2022-10-17T07:54:30;21.00;53.70
3504;DHT22;1766;53.490;10.174;2022-10-17T07:56:32;21.00;53.50
3504;DHT22;1766;53.490;10.174;2022-10-17T07:58:35;21.10;53.70
3504;DHT22;1766;53.490;10.174;2022-10-17T08:00:37;21.10;53.80
3504;DHT22;1766;53.490;10.174;2022-10-17T08:02:40;21.20;53.80
3504;DHT22;1766;53.490;10.174;2022-10-17T08:04:42;21.30;53.90
3504;DHT22;1766;53.490;10.174;2022-10-17T08:06:44;21.40;53.90
3504;DHT22;1766;53.490;10.174;2022-10-17T08:08:46;21.50;54.10
3504;DHT22;1766;53.490;10.174;2022-10-17T08:10:48;21.70;54.30
3504;DHT22;1766;53.490;10.174;2022-10-17T08:12:49;21.80;54.30
3504;DHT22;1766;53.490;10.174;2022-10-17T08:14:51;21.90;54.30
3504;DHT22;1766;53.490;10.174;2022-10-17T08:16:53;22.00;54.20
3504;DHT22;1766;53.490;10.174;2022-10-17T08:18:56;22.20;54.30
3504;DHT22;1766;53.490;10.174;2022-10-17T08:20:59;22.20;54.60
3504;DHT22;1766;53.490;10.174;2022-10-17T08:23:01;22.30;54.20
3504;DHT22;1766;53.490;10.174;2022-10-17T08:25:03;22.50;54.10
3504;DHT22;1766;53.490;10.174;2022-10-17T08:27:05;22.50;53.90
3504;DHT22;1766;53.490;10.174;2022-10-17T08:29:11;22.70;53.90
3504;DHT22;1766;53.490;10.174;2022-10-17T08:31:15;22.60;53.70
3504;DHT22;1766;53.490;10.174;2022-10-17T08:33:18;22.70;53.70
3504;DHT22;1766;53.490;10.174;2022-10-17T08:35:21;22.70;53.50
3504;DHT22;1766;53.490;10.174;2022-10-17T08:37:23;22.80;53.50
3504;DHT22;1766;53.490;10.174;2022-10-17T08:39:25;22.90;53.50
3504;DHT22;1766;53.490;10.174;2022-10-17T08:41:39;22.90;53.30
3504;DHT22;1766;53.490;10.174;2022-10-17T08:43:58;22.90;53.30
3504;DHT22;1766;53.490;10.174;2022-10-17T08:46:05;23.00;53.30
3504;DHT22;1766;53.490;10.174;2022-10-17T08:48:12;23.10;53.20
3504;DHT22;1766;53.490;10.174;2022-10-17T08:50:23;23.20;53.20
3504;DHT22;1766;53.490;10.174;2022-10-17T08:52:36;23.30;53.20
3504;DHT22;1766;53.490;10.174;2022-10-17T08:54:42;23.40;53.30
3504;DHT22;1766;53.490;10.174;2022-10-17T08:56:48;23.50;53.30
3504;DHT22;1766;53.490;10.174;2022-10-17T08:58:51;23.60;53.20
3504;DHT22;1766;53.490;10.174;2022-10-17T09:01:01;23.70;53.10
3504;DHT22;1766;53.490;10.174;2022-10-17T09:03:14;23.70;53.00
3504;DHT22;1766;53.490;10.174;2022-10-17T09:05:39;23.80;53.00
3504;DHT22;1766;53.490;10.174;2022-10-17T09:07:47;23.90;52.80
3504;DHT22;1766;53.490;10.174;2022-10-17T09:10:00;24.00;52.60
3504;DHT22;1766;53.490;10.174;2022-10-17T09:12:15;24.00;52.60
3504;DHT22;1766;53.490;10.174;2022-10-17T09:17:02;24.10;52.50
3504;DHT22;1766;53.490;10.174;2022-10-17T09:19:18;24.30;52.60
3504;DHT22;1766;53.490;10.174;2022-10-17T09:21:26;24.30;52.50
3504;DHT22;1766;53.490;10.174;2022-10-17T09:23:44;24.50;52.60
3504;DHT22;1766;53.490;10.174;2022-10-17T09:25:51;24.70;52.70
3504;DHT22;1766;53.490;10.174;2022-10-17T09:28:01;24.80;52.50
3504;DHT22;1766;53.490;10.174;2022-10-17T09:30:21;24.90;52.30
3504;DHT22;1766;53.490;10.174;2022-10-17T09:32:26;25.00;52.20
3504;DHT22;1766;53.490;10.174;2022-10-17T09:34:31;25.20;52.10
3504;DHT22;1766;53.490;10.174;2022-10-17T09:36:36;25.30;52.00
3504;DHT22;1766;53.490;10.174;2022-10-17T09:38:42;25.30;51.70
3504;DHT22;1766;53.490;10.174;2022-10-17T09:40:53;25.40;51.70
3504;DHT22;1766;53.490;10.174;2022-10-17T09:42:56;25.50;51.50
3504;DHT22;1766;53.490;10.174;2022-10-17T09:45:10;25.70;52.00
3504;DHT22;1766;53.490;10.174;2022-10-17T09:47:23;25.60;51.20
3504;DHT22;1766;53.490;10.174;2022-10-17T09:49:31;25.80;51.10
3504;DHT22;1766;53.490;10.174;2022-10-17T09:51:36;25.80;50.90
3504;DHT22;1766;53.490;10.174;2022-10-17T09:53:41;25.90;50.80
3504;DHT22;1766;53.490;10.174;2022-10-17T09:55:46;25.90;50.70
3504;DHT22;1766;53.490;10.174;2022-10-17T09:57:53;25.90;50.50
3504;DHT22;1766;53.490;10.174;2022-10-17T09:59:58;26.00;50.50
3504;DHT22;1766;53.490;10.174;2022-10-17T10:02:14;26.20;50.50
3504;DHT22;1766;53.490;10.174;2022-10-17T10:04:17;26.50;50.10
3504;DHT22;1766;53.490;10.174;2022-10-17T10:06:20;26.40;50.20
3504;DHT22;1766;53.490;10.174;2022-10-17T10:08:25;26.60;50.20
3504;DHT22;1766;53.490;10.174;2022-10-17T10:10:30;26.60;50.10
3504;DHT22;1766;53.490;10.174;2022-10-17T10:12:35;26.80;50.00
3504;DHT22;1766;53.490;10.174;2022-10-17T10:14:38;26.80;49.70
3504;DHT22;1766;53.490;10.174;2022-10-17T10:16:42;26.90;49.40
3504;DHT22;1766;53.490;10.174;2022-10-17T10:18:44;26.90;49.40
3504;DHT22;1766;53.490;10.174;2022-10-17T10:20:47;27.00;49.30
3504;DHT22;1766;53.490;10.174;2022-10-17T10:23:11;26.90;49.10
3504;DHT22;1766;53.490;10.174;2022-10-17T10:25:16;27.10;49.10
3504;DHT22;1766;53.490;10.174;2022-10-17T10:27:28;27.20;49.00
3504;DHT22;1766;53.490;10.174;2022-10-17T10:29:32;27.20;48.60
3504;DHT22;1766;53.490;10.174;2022-10-17T10:31:37;27.30;48.70
3504;DHT22;1766;53.490;10.174;2022-10-17T10:33:41;27.30;48.50
3504;DHT22;1766;53.490;10.174;2022-10-17T10:35:52;27.50;48.50
3504;DHT22;1766;53.490;10.174;2022-10-17T10:37:57;27.50;48.40
3504;DHT22;1766;53.490;10.174;2022-10-17T10:40:05;27.70;48.30
3504;DHT22;1766;53.490;10.174;2022-10-17T10:42:22;27.80;48.20
3504;DHT22;1766;53.490;10.174;2022-10-17T10:44:28;28.00;48.00
3504;DHT22;1766;53.490;10.174;2022-10-17T10:46:31;28.10;47.80
3504;DHT22;1766;53.490;10.174;2022-10-17T10:48:34;28.00;47.50
3504;DHT22;1766;53.490;10.174;2022-10-17T10:50:40;28.00;47.30
3504;DHT22;1766;53.490;10.174;2022-10-17T10:52:49;28.10;47.10
3504;DHT22;1766;53.490;10.174;2022-10-17T10:55:00;28.00;47.00
3504;DHT22;1766;53.490;10.174;2022-10-17T10:57:08;28.00;46.80
3504;DHT22;1766;53.490;10.174;2022-10-17T10:59:18;28.00;46.80
3504;DHT22;1766;53.490;10.174;2022-10-17T11:01:29;28.00;46.60
3504;DHT22;1766;53.490;10.174;2022-10-17T11:03:38;28.00;46.70
3504;DHT22;1766;53.490;10.174;2022-10-17T11:05:45;28.00;46.70
3504;DHT22;1766;53.490;10.174;2022-10-17T11:07:53;28.00;46.70
3504;DHT22;1766;53.490;10.174;2022-10-17T11:10:06;27.90;46.50
3504;DHT22;1766;53.490;10.174;2022-10-17T11:12:18;27.90;46.70
3504;DHT22;1766;53.490;10.174;2022-10-17T11:14:32;27.90;46.70
3504;DHT22;1766;53.490;10.174;2022-10-17T11:16:41;27.80;46.60
3504;DHT22;1766;53.490;10.174;2022-10-17T11:18:49;27.90;47.20
3504;DHT22;1766;53.490;10.174;2022-10-17T11:20:56;27.80;46.70
3504;DHT22;1766;53.490;10.174;2022-10-17T11:23:18;27.80;46.70
3504;DHT22;1766;53.490;10.174;2022-10-17T11:25:30;27.80;46.90
3504;DHT22;1766;53.490;10.174;2022-10-17T11:27:33;27.90;47.00
3504;DHT22;1766;53.490;10.174;2022-10-17T11:29:38;28.10;46.90
3504;DHT22;1766;53.490;10.174;2022-10-17T11:31:46;28.20;46.80
3504;DHT22;1766;53.490;10.174;2022-10-17T11:33:53;28.30;46.80
3504;DHT22;1766;53.490;10.174;2022-10-17T11:36:02;28.40;46.80
3504;DHT22;1766;53.490;10.174;2022-10-17T11:38:15;28.60;46.60
3504;DHT22;1766;53.490;10.174;2022-10-17T11:40:25;28.70;46.80
3504;DHT22;1766;53.490;10.174;2022-10-17T11:42:31;28.70;46.10
3504;DHT22;1766;53.490;10.174;2022-10-17T11:44:37;28.60;46.00
3504;DHT22;1766;53.490;10.174;2022-10-17T11:46:40;28.70;46.10
3504;DHT22;1766;53.490;10.174;2022-10-17T11:48:50;28.70;46.20
3504;DHT22;1766;53.490;10.174;2022-10-17T11:51:05;28.60;46.10
3504;DHT22;1766;53.490;10.174;2022-10-17T11:53:13;28.60;46.10
3504;DHT22;1766;53.490;10.174;2022-10-17T11:55:19;28.60;46.30
3504;DHT22;1766;53.490;10.174;2022-10-17T11:57:36;28.60;46.00
3504;DHT22;1766;53.490;10.174;2022-10-17T11:59:58;28.50;46.00
3504;DHT22;1766;53.490;10.174;2022-10-17T12:02:11;28.40;46.00
3504;DHT22;1766;53.490;10.174;2022-10-17T12:04:23;28.50;46.10
3504;DHT22;1766;53.490;10.174;2022-10-17T12:06:42;28.40;46.40
3504;DHT22;1766;53.490;10.174;2022-10-17T12:08:51;28.40;46.40
3504;DHT22;1766;53.490;10.174;2022-10-17T12:11:01;28.40;46.40
3504;DHT22;1766;53.490;10.174;2022-10-17T12:15:53;28.20;46.50
3504;DHT22;1766;53.490;10.174;2022-10-17T12:17:56;28.20;46.20
3504;DHT22;1766;53.490;10.174;2022-10-17T12:22:35;27.90;46.10
3504;DHT22;1766;53.490;10.174;2022-10-17T12:24:39;28.00;46.00
3504;DHT22;1766;53.490;10.174;2022-10-17T12:26:42;27.80;46.00
3504;DHT22;1766;53.490;10.174;2022-10-17T12:28:45;27.90;45.90
3504;DHT22;1766;53.490;10.174;2022-10-17T12:30:50;27.80;46.00
3504;DHT22;1766;53.490;10.174;2022-10-17T12:32:58;27.80;46.00
3504;DHT22;1766;53.490;10.174;2022-10-17T12:35:03;27.70;46.10
3504;DHT22;1766;53.490;10.174;2022-10-17T12:37:09;27.80;46.20
3504;DHT22;1766;53.490;10.174;2022-10-17T12:41:53;27.70;46.10
3504;DHT22;1766;53.490;10.174;2022-10-17T12:43:55;27.70;45.80
3504;DHT22;1766;53.490;10.174;2022-10-17T12:45:59;27.70;45.90
3504;DHT22;1766;53.490;10.174;2022-10-17T12:48:01;27.60;46.00
3504;DHT22;1766;53.490;10.174;2022-10-17T12:50:07;27.70;46.10
3504;DHT22;1766;53.490;10.174;2022-10-17T12:53:01;27.60;46.10
3504;DHT22;1766;53.490;10.174;2022-10-17T12:55:09;27.50;46.00
3504;DHT22;1766;53.490;10.174;2022-10-17T12:59:35;27.50;45.90
3504;DHT22;1766;53.490;10.174;2022-10-17T13:01:38;27.50;45.80
3504;DHT22;1766;53.490;10.174;2022-10-17T13:03:43;27.30;45.80
3504;DHT22;1766;53.490;10.174;2022-10-17T13:05:49;27.30;45.80
3504;DHT22;1766;53.490;10.174;2022-10-17T13:07:52;27.20;45.80
3504;DHT22;1766;53.490;10.174;2022-10-17T13:09:57;27.20;45.90
3504;DHT22;1766;53.490;10.174;2022-10-17T13:12:08;27.20;45.90
3504;DHT22;1766;53.490;10.174;2022-10-17T13:14:15;27.10;46.00
3504;DHT22;1766;53.490;10.174;2022-10-17T13:16:27;27.10;46.10
3504;DHT22;1766;53.490;10.174;2022-10-17T13:18:30;27.00;46.20
3504;DHT22;1766;53.490;10.174;2022-10-17T13:20:32;27.00;46.00
3504;DHT22;1766;53.490;10.174;2022-10-17T13:22:34;27.00;46.00
3504;DHT22;1766;53.490;10.174;2022-10-17T13:24:37;26.90;46.20
3504;DHT22;1766;53.490;10.174;2022-10-17T13:26:47;26.60;46.30
3504;DHT22;1766;53.490;10.174;2022-10-17T13:29:01;26.10;47.20
3504;DHT22;1766;53.490;10.174;2022-10-17T13:31:03;25.60;48.30
3504;DHT22;1766;53.490;10.174;2022-10-17T13:33:26;25.40;49.00
3504;DHT22;1766;53.490;10.174;2022-10-17T13:35:33;25.10;50.10
3504;DHT22;1766;53.490;10.174;2022-10-17T13:37:39;25.00;50.60
3504;DHT22;1766;53.490;10.174;2022-10-17T13:39:44;24.80;51.00